Disclaimer

Please do not use the information listed here in-flight or in-navigation, as they are not provided to us by the airports but are provided by volunteers, so they might be outdated.

Search


Regions


Airport information page

Radio informations:
RADAR - 124.6 MHz
Automatic Terminal Information Service (ATIS) - 128.3 MHz
Approach (APP) - 124.6 MHz

Airport informations:
Latitude: 51° 01' 20.00" N
Longitude: 071° 28' 01.00" E
Elevation: 1165 feet - 355 meters
Operating hours: 24 hour operations
Operating agency: Civil government, landing fees and diplomatic clearance may be required
Timezone: UTC+6
Fuel: N/A

Runway information:
04/22 - 11484 x 147 feet< - >3500 x 45 meters

Recent METARs:
UACC 212200Z 23003MPS 1800 R22/P2000 SN BR BKN002 OVC020 M15/M16 Q1027 R22/35//55 NOSIG RMK QBB070 QFE738/0985
UACC 212230Z 23003MPS 4600 -SN BR BKN003 OVC020 M15/M16 Q1027 R22/35//55 NOSIG RMK QBB110 QFE738/0985
UACC 212300Z 24002MPS 6000 -SN BKN003 OVC020 M14/M16 Q1026 R22/35//55 NOSIG RMK QBB090 QFE738/0984

Airport on the map: